Portada
METAR-TAF:

METAR-TAF

Aeroports :

Libreville, Gabon

latitud: 00-27N, longitud: 009-25E, altitud: 12 m

Observació

L'informe es va fer fa 32 minuts, a les 06:00 UTC
Vent 7 kt del Sud, variant entre Sud-Est i Sud
Temperatura 24°C
Humitat 89%
Pressió 1014 hPa
Visibilitat: 9000 m
Cel ennuvolat a una alçada de 1100 ft

METAR: FOOL 060600Z 17007KT 130V190 9000 BKN011 24/22 Q1014 NOSIG

Hora: 07:32 (06:32 UTC)

Pronòstic

L'informe es va fer fa 1 hora i 32 minuts, a les 05:00 UTC
Pronòstic vàlid del 06 a les 06 UTC al 07 a les 12 UTC
Vent 8 kt del Sud/Sud-Oest
Visibilitat 10 km o més
Núvols disperses a una alçada de 1200 ft
Cel ennuvolat a una alçada de 3500 ft

TAF: FOOL 060500Z 0606/0712 21008KT 9999 SCT012 BKN035

Observacions i pronòstics meteorològics de més de 4000 aeroports (METAR i TAF).

Les estacions disponibles són els punts grocs i vermells al mapa.

Posi el ratolí al punt desitjat per veure el nom de l'estació.

Feu clic per veure les observacions i els pronòstics meteorològics.

Per canviar el mapa: feu clic els botons verds amb una creu de color negre per apropar; al botó verd amb un guió per allunyar la imatge; o en les fletxes verdes per a mapes adjacents.


METAR-TAF: